createdAt,value
2017-05-17T00:00:37.067Z,0
2017-05-17T00:01:59.328Z,0
2017-05-17T00:03:21.186Z,0
2017-05-17T00:04:43.054Z,0
2017-05-17T00:06:04.916Z,0
2017-05-17T00:07:27.425Z,0
2017-05-17T00:08:49.911Z,0
2017-05-17T00:10:12.180Z,0
2017-05-17T00:11:34.016Z,0
2017-05-17T00:12:55.852Z,0
2017-05-17T00:14:17.046Z,0
2017-05-17T00:15:38.970Z,0
2017-05-17T00:17:01.192Z,0
2017-05-17T00:18:23.667Z,0
2017-05-17T00:19:45.521Z,0
2017-05-17T00:21:07.656Z,0
2017-05-17T00:22:30.129Z,0
2017-05-17T00:23:51.946Z,0
2017-05-17T00:25:14.117Z,0
2017-05-17T00:26:36.611Z,0
2017-05-17T00:27:57.818Z,0
2017-05-17T00:29:19.959Z,0
2017-05-17T00:30:41.801Z,0
2017-05-17T00:32:04.269Z,0
2017-05-17T00:33:26.455Z,0
2017-05-17T00:34:47.669Z,0
2017-05-17T00:36:09.495Z,0
2017-05-17T00:37:31.729Z,0
2017-05-17T00:38:53.889Z,0
2017-05-17T00:40:16.047Z,0
2017-05-17T00:41:38.329Z,0
2017-05-17T00:43:00.127Z,0
2017-05-17T00:44:22.419Z,0
2017-05-17T00:45:44.560Z,0
2017-05-17T00:47:06.809Z,0
2017-05-17T00:48:29.419Z,0
2017-05-17T00:49:50.637Z,0
2017-05-17T00:51:12.887Z,0
2017-05-17T00:52:34.402Z,0
2017-05-17T00:53:56.849Z,0
2017-05-17T00:55:18.689Z,0
2017-05-17T00:56:40.581Z,0
2017-05-17T00:58:02.750Z,0
2017-05-17T00:59:24.614Z,0
2017-05-17T01:00:47.079Z,0
2017-05-17T01:02:08.667Z,0
2017-05-17T01:03:30.524Z,0
2017-05-17T01:04:52.746Z,0
2017-05-17T01:06:14.578Z,0
2017-05-17T01:07:36.421Z,0
2017-05-17T01:08:58.589Z,0
2017-05-17T01:10:20.839Z,0
2017-05-17T01:11:42.448Z,0
2017-05-17T01:13:03.988Z,0
2017-05-17T01:14:25.518Z,0
2017-05-17T01:15:47.921Z,0
2017-05-17T01:17:09.449Z,0
2017-05-17T01:18:31.274Z,0
2017-05-17T01:19:53.746Z,0
2017-05-17T01:21:15.634Z,0
2017-05-17T01:22:37.158Z,0
2017-05-17T01:23:59.098Z,0
2017-05-17T01:25:20.981Z,0
2017-05-17T01:26:43.800Z,0
2017-05-17T01:28:05.639Z,0
2017-05-17T01:29:27.522Z,0
2017-05-17T01:30:49.990Z,0
2017-05-17T01:32:12.522Z,0
2017-05-17T01:33:34.689Z,0
2017-05-17T01:34:56.537Z,0
2017-05-17T01:36:18.680Z,0
2017-05-17T01:37:40.857Z,0
2017-05-17T01:39:02.389Z,0
2017-05-17T01:40:24.549Z,0
2017-05-17T01:41:46.709Z,0
2017-05-17T01:43:08.956Z,0
2017-05-17T01:44:31.102Z,0
2017-05-17T01:45:52.927Z,0
2017-05-17T01:47:14.450Z,0
2017-05-17T01:48:37.113Z,0
2017-05-17T01:49:59.587Z,0
2017-05-17T01:51:21.103Z,0
2017-05-17T01:52:42.659Z,0
2017-05-17T01:54:04.843Z,0
2017-05-17T01:55:26.696Z,0
2017-05-17T01:56:48.208Z,0
2017-05-17T01:58:09.499Z,0
2017-05-17T01:59:32.021Z,0
2017-05-17T02:00:53.845Z,0
2017-05-17T02:02:16.419Z,0
2017-05-17T02:03:38.559Z,0
2017-05-17T02:05:00.048Z,0
2017-05-17T02:06:21.248Z,0
2017-05-17T02:07:43.121Z,0
2017-05-17T02:09:05.380Z,0
2017-05-17T02:10:27.799Z,0
2017-05-17T02:11:49.008Z,0
2017-05-17T02:13:10.518Z,0
2017-05-17T02:14:32.979Z,0
2017-05-17T02:15:54.919Z,0
2017-05-17T02:17:16.799Z,0
2017-05-17T02:18:38.328Z,0
2017-05-17T02:19:59.856Z,0
2017-05-17T02:21:21.687Z,0
2017-05-17T02:22:43.870Z,0
2017-05-17T02:24:05.423Z,0
2017-05-17T02:25:27.031Z,0
2017-05-17T02:26:49.768Z,0
2017-05-17T02:28:11.286Z,0
2017-05-17T02:29:33.499Z,0
2017-05-17T02:30:55.028Z,0
2017-05-17T02:32:17.550Z,0
2017-05-17T02:33:39.127Z,0
2017-05-17T02:35:00.396Z,0
2017-05-17T02:36:22.567Z,0
2017-05-17T02:37:45.077Z,0
2017-05-17T02:39:06.596Z,0
2017-05-17T02:40:28.490Z,0
2017-05-17T02:41:51.086Z,0
2017-05-17T02:43:13.201Z,0
2017-05-17T02:44:35.358Z,0
2017-05-17T02:45:56.999Z,0
2017-05-17T02:47:18.559Z,0
2017-05-17T02:48:40.950Z,0
2017-05-17T02:50:03.180Z,0
2017-05-17T02:51:25.629Z,0
2017-05-17T02:52:47.558Z,0
2017-05-17T02:54:09.740Z,0
2017-05-17T02:55:31.587Z,0
2017-05-17T02:56:53.108Z,0
2017-05-17T02:58:15.260Z,0
2017-05-17T02:59:37.421Z,0
2017-05-17T03:00:59.689Z,0
2017-05-17T03:02:21.831Z,0
2017-05-17T03:03:44.309Z,0
2017-05-17T03:05:06.129Z,0
2017-05-17T03:06:27.742Z,0
2017-05-17T03:07:49.570Z,0
2017-05-17T03:09:11.140Z,0
2017-05-17T03:10:33.888Z,0
2017-05-17T03:11:55.140Z,0
2017-05-17T03:13:16.362Z,0
2017-05-17T03:14:38.519Z,0
2017-05-17T03:16:00.977Z,0
2017-05-17T03:17:23.494Z,0
2017-05-17T03:18:45.784Z,0
2017-05-17T03:20:07.304Z,0
2017-05-17T03:21:29.284Z,0
2017-05-17T03:22:50.886Z,0
2017-05-17T03:24:13.048Z,0
2017-05-17T03:25:35.027Z,0
2017-05-17T03:26:56.908Z,0
2017-05-17T03:28:19.089Z,0
2017-05-17T03:29:41.228Z,0
2017-05-17T03:31:03.738Z,5
2017-05-17T03:32:25.402Z,5
2017-05-17T03:33:46.979Z,5
2017-05-17T03:35:08.489Z,5
2017-05-17T03:36:30.156Z,5
2017-05-17T03:37:52.028Z,5
2017-05-17T03:39:14.198Z,5
2017-05-17T03:40:36.098Z,5
2017-05-17T03:41:57.618Z,10
2017-05-17T03:43:20.969Z,10
2017-05-17T03:44:42.909Z,10
2017-05-17T03:46:05.058Z,10
2017-05-17T03:47:26.966Z,15
2017-05-17T03:48:49.156Z,15
2017-05-17T03:50:10.083Z,15
2017-05-17T03:51:32.220Z,20
2017-05-17T03:52:54.084Z,20
2017-05-17T03:54:15.999Z,25
2017-05-17T03:55:38.458Z,25
2017-05-17T03:57:00.287Z,25
2017-05-17T03:58:22.200Z,25
2017-05-17T03:59:44.659Z,25
2017-05-17T04:01:06.470Z,25
2017-05-17T04:02:28.397Z,25
2017-05-17T04:03:50.890Z,25
2017-05-17T04:05:12.877Z,25
2017-05-17T04:06:34.398Z,25
2017-05-17T04:07:55.926Z,25
2017-05-17T04:09:18.068Z,30
2017-05-17T04:10:40.210Z,30
2017-05-17T04:12:02.668Z,30
2017-05-17T04:13:23.887Z,30
2017-05-17T04:14:45.819Z,35
2017-05-17T04:16:07.631Z,35
2017-05-17T04:17:30.160Z,40
2017-05-17T04:18:52.358Z,40
2017-05-17T04:20:13.974Z,45
2017-05-17T04:21:36.459Z,50
2017-05-17T04:22:58.028Z,55
2017-05-17T04:24:19.880Z,55
2017-05-17T04:25:42.068Z,55
2017-05-17T04:27:04.539Z,60
2017-05-17T04:28:26.722Z,60
2017-05-17T04:29:48.396Z,65
2017-05-17T04:31:10.548Z,65
2017-05-17T04:32:33.059Z,75
2017-05-17T04:33:54.269Z,70
2017-05-17T04:35:16.408Z,75
2017-05-17T04:36:38.558Z,80
2017-05-17T04:38:00.696Z,85
2017-05-17T04:39:22.829Z,85
2017-05-17T04:40:44.731Z,90
2017-05-17T04:42:06.786Z,95
2017-05-17T04:43:28.928Z,100
2017-05-17T04:44:51.419Z,95
2017-05-17T04:46:12.912Z,100
2017-05-17T04:47:34.766Z,100
2017-05-17T04:48:56.869Z,100
2017-05-17T04:50:18.749Z,95
2017-05-17T04:51:40.272Z,95
2017-05-17T04:53:02.477Z,100
2017-05-17T04:54:24.889Z,105
2017-05-17T04:55:46.421Z,110
2017-05-17T04:57:07.641Z,115
2017-05-17T04:58:29.528Z,120
2017-05-17T04:59:51.474Z,125
2017-05-17T05:01:12.662Z,130
2017-05-17T05:02:34.898Z,135
2017-05-17T05:03:56.540Z,140
2017-05-17T05:05:18.855Z,150
2017-05-17T05:06:41.037Z,145
2017-05-17T05:08:03.185Z,150
2017-05-17T05:09:25.077Z,150
2017-05-17T05:10:46.897Z,150
2017-05-17T05:12:08.730Z,150
2017-05-17T05:13:31.253Z,145
2017-05-17T05:14:53.211Z,145
2017-05-17T05:16:15.638Z,145
2017-05-17T05:17:37.813Z,145
2017-05-17T05:19:00.346Z,150
2017-05-17T05:20:22.917Z,150
2017-05-17T05:21:45.198Z,155
2017-05-17T05:23:07.078Z,155
2017-05-17T05:24:29.578Z,160
2017-05-17T05:25:51.098Z,165
2017-05-17T05:27:13.235Z,170
2017-05-17T05:28:35.477Z,175
2017-05-17T05:29:57.425Z,175
2017-05-17T05:31:19.318Z,180
2017-05-17T05:32:41.837Z,180
2017-05-17T05:34:03.487Z,185
2017-05-17T05:35:25.015Z,185
2017-05-17T05:36:46.978Z,190
2017-05-17T05:38:09.141Z,190
2017-05-17T05:39:30.977Z,190
2017-05-17T05:40:53.440Z,190
2017-05-17T05:42:15.928Z,200
2017-05-17T05:43:38.398Z,205
2017-05-17T05:44:59.928Z,205
2017-05-17T05:46:21.788Z,215
2017-05-17T05:47:44.357Z,220
2017-05-17T05:49:06.488Z,230
2017-05-17T05:50:27.998Z,235
2017-05-17T05:51:50.488Z,245
2017-05-17T05:53:12.978Z,250
2017-05-17T05:54:34.876Z,255
2017-05-17T05:55:57.039Z,255
2017-05-17T05:57:19.262Z,255
2017-05-17T05:58:41.493Z,255
2017-05-17T06:00:04.338Z,250
2017-05-17T06:01:26.209Z,250
2017-05-17T06:02:47.748Z,240
2017-05-17T06:04:09.918Z,230
2017-05-17T06:05:32.357Z,215
2017-05-17T06:06:53.957Z,210
2017-05-17T06:08:15.176Z,195
2017-05-17T06:09:37.088Z,185
2017-05-17T06:10:59.297Z,180
2017-05-17T06:12:20.567Z,170
2017-05-17T06:13:41.814Z,165
2017-05-17T06:15:03.969Z,165
2017-05-17T06:16:26.846Z,165
2017-05-17T06:17:49.337Z,175
2017-05-17T06:19:10.868Z,190
2017-05-17T06:20:33.677Z,210
2017-05-17T06:21:56.128Z,230
2017-05-17T06:23:18.078Z,260
2017-05-17T06:24:40.248Z,280
2017-05-17T06:26:02.147Z,310
2017-05-17T06:27:24.297Z,325
2017-05-17T06:28:46.148Z,335
2017-05-17T06:30:08.318Z,320
2017-05-17T06:31:30.892Z,320
2017-05-17T06:32:52.666Z,330
2017-05-17T06:34:15.154Z,345
2017-05-17T06:35:36.750Z,360
2017-05-17T06:36:57.969Z,360
2017-05-17T06:38:20.196Z,360
2017-05-17T06:39:42.147Z,365
2017-05-17T06:41:03.675Z,360
2017-05-17T06:42:25.853Z,370
2017-05-17T06:43:47.947Z,385
2017-05-17T06:45:09.834Z,425
2017-05-17T06:46:31.848Z,410
2017-05-17T06:47:53.687Z,435
2017-05-17T06:49:16.486Z,475
2017-05-17T06:50:38.645Z,470
2017-05-17T06:52:00.498Z,470
2017-05-17T06:53:22.370Z,465
2017-05-17T06:54:45.156Z,475
2017-05-17T06:56:07.080Z,485
2017-05-17T06:57:29.040Z,460
2017-05-17T06:58:51.621Z,455
2017-05-17T07:00:14.407Z,445
2017-05-17T07:01:36.029Z,440
2017-05-17T07:02:57.557Z,440
2017-05-17T07:04:20.048Z,440
2017-05-17T07:05:41.887Z,440
2017-05-17T07:07:04.104Z,475
2017-05-17T07:08:25.936Z,475
2017-05-17T07:09:47.777Z,405
2017-05-17T07:11:09.657Z,450
2017-05-17T07:12:31.860Z,405
2017-05-17T07:13:54.343Z,415
2017-05-17T07:15:16.223Z,435
2017-05-17T07:16:38.107Z,510
2017-05-17T07:18:00.007Z,490
2017-05-17T07:19:21.580Z,585
2017-05-17T07:20:43.755Z,615
2017-05-17T07:22:06.818Z,640
2017-05-17T07:23:28.342Z,595
2017-05-17T07:24:50.519Z,590
2017-05-17T07:26:12.379Z,645
2017-05-17T07:27:34.817Z,655
2017-05-17T07:28:56.025Z,625
2017-05-17T07:30:18.188Z,705
2017-05-17T07:31:40.449Z,715
2017-05-17T07:33:03.216Z,665
2017-05-17T07:34:24.431Z,665
2017-05-17T07:35:46.269Z,625
2017-05-17T07:37:08.766Z,635
2017-05-17T07:38:31.370Z,635
2017-05-17T07:39:53.211Z,620
2017-05-17T07:41:15.746Z,610
2017-05-17T07:42:37.609Z,575
2017-05-17T07:44:00.378Z,560
2017-05-17T07:45:22.211Z,555
2017-05-17T07:46:44.418Z,550
2017-05-17T07:48:05.951Z,570
2017-05-17T07:49:28.447Z,540
2017-05-17T07:50:50.618Z,505
2017-05-17T07:52:12.795Z,495
2017-05-17T07:53:34.468Z,490
2017-05-17T07:54:56.628Z,445
2017-05-17T07:56:18.666Z,440
2017-05-17T07:57:40.863Z,440
2017-05-17T07:59:03.368Z,475
2017-05-17T08:00:25.249Z,515
2017-05-17T08:01:47.497Z,495
2017-05-17T08:03:09.357Z,540
2017-05-17T08:04:31.888Z,535
2017-05-17T08:05:54.058Z,565
2017-05-17T08:07:16.296Z,560
2017-05-17T08:08:38.778Z,480
2017-05-17T08:10:01.153Z,455
2017-05-17T08:11:23.659Z,455
2017-05-17T08:12:45.528Z,460
2017-05-17T08:14:07.702Z,460
2017-05-17T08:15:29.578Z,460
2017-05-17T08:16:51.778Z,455
2017-05-17T08:18:13.936Z,455
2017-05-17T08:19:35.908Z,460
2017-05-17T08:20:57.509Z,450
2017-05-17T08:22:20.469Z,430
2017-05-17T08:23:42.328Z,435
2017-05-17T08:25:04.818Z,435
2017-05-17T08:26:26.348Z,435
2017-05-17T08:27:48.497Z,425
2017-05-17T08:29:10.688Z,425
2017-05-17T08:30:33.167Z,415
2017-05-17T08:31:55.007Z,410
2017-05-17T08:33:17.210Z,405
2017-05-17T08:34:39.151Z,405
2017-05-17T08:36:01.316Z,400
2017-05-17T08:37:23.558Z,400
2017-05-17T08:38:45.478Z,395
2017-05-17T08:40:07.006Z,395
2017-05-17T08:41:29.497Z,395
2017-05-17T08:42:51.665Z,395
2017-05-17T08:44:13.826Z,410
2017-05-17T08:45:35.209Z,415
2017-05-17T08:46:57.465Z,420
2017-05-17T08:48:19.628Z,435
2017-05-17T08:49:41.980Z,435
2017-05-17T08:51:03.828Z,440
2017-05-17T08:52:26.096Z,455
2017-05-17T08:53:47.952Z,480
2017-05-17T08:55:10.220Z,490
2017-05-17T08:56:31.736Z,480
2017-05-17T08:57:53.598Z,470
2017-05-17T08:59:15.436Z,445
2017-05-17T09:00:37.627Z,425
2017-05-17T09:01:59.578Z,390
2017-05-17T09:03:21.935Z,375
2017-05-17T09:04:43.787Z,350
2017-05-17T09:06:06.310Z,350
2017-05-17T09:07:28.807Z,360
2017-05-17T09:08:50.659Z,360
2017-05-17T09:10:12.508Z,355
2017-05-17T09:11:34.980Z,345
2017-05-17T09:12:57.497Z,350
2017-05-17T09:14:19.348Z,345
2017-05-17T09:15:41.828Z,345
2017-05-17T09:17:04.298Z,350
2017-05-17T09:18:26.129Z,355
2017-05-17T09:19:48.299Z,340
2017-05-17T09:21:10.489Z,340
2017-05-17T09:22:33.007Z,345
2017-05-17T09:23:54.997Z,350
2017-05-17T09:25:16.867Z,350
2017-05-17T09:26:38.438Z,355
2017-05-17T09:28:00.779Z,355
2017-05-17T09:29:22.997Z,360
2017-05-17T09:30:45.217Z,355
2017-05-17T09:32:06.423Z,355
2017-05-17T09:33:27.957Z,360
2017-05-17T09:34:49.878Z,355
2017-05-17T09:36:11.732Z,355
2017-05-17T09:37:33.269Z,360
2017-05-17T09:38:56.122Z,350
2017-05-17T09:40:17.960Z,345
2017-05-17T09:41:40.157Z,340
2017-05-17T09:43:02.008Z,340
2017-05-17T09:44:23.864Z,335
2017-05-17T09:45:46.127Z,340
2017-05-17T09:47:07.663Z,325
2017-05-17T09:48:29.520Z,330
2017-05-17T09:49:51.665Z,330
2017-05-17T09:51:13.965Z,320
2017-05-17T09:52:36.139Z,320
2017-05-17T09:53:57.684Z,305
2017-05-17T09:55:20.148Z,310
2017-05-17T09:56:42.376Z,320
2017-05-17T09:58:04.336Z,330
2017-05-17T09:59:26.556Z,350
2017-05-17T10:00:49.012Z,360
2017-05-17T10:02:11.188Z,360
2017-05-17T10:03:33.407Z,355
2017-05-17T10:04:55.618Z,350
2017-05-17T10:06:18.069Z,335
2017-05-17T10:07:39.626Z,320
2017-05-17T10:09:01.462Z,310
2017-05-17T10:10:23.987Z,300
2017-05-17T10:11:46.434Z,295
2017-05-17T10:13:08.417Z,290
2017-05-17T10:14:30.019Z,285
2017-05-17T10:15:51.936Z,280
2017-05-17T10:17:14.497Z,275
2017-05-17T10:18:36.677Z,275
2017-05-17T10:19:58.835Z,270
2017-05-17T10:21:21.360Z,260
2017-05-17T10:22:43.828Z,255
2017-05-17T10:24:05.681Z,260
2017-05-17T10:25:27.527Z,270
2017-05-17T10:26:50.109Z,285
2017-05-17T10:28:12.261Z,285
2017-05-17T10:29:34.104Z,285
2017-05-17T10:30:56.006Z,300
2017-05-17T10:32:18.228Z,325
2017-05-17T10:33:40.325Z,345
2017-05-17T10:35:02.805Z,365
2017-05-17T10:36:25.276Z,380
2017-05-17T10:37:46.796Z,385
2017-05-17T10:39:08.588Z,385
2017-05-17T10:40:30.446Z,390
2017-05-17T10:41:52.337Z,395
2017-05-17T10:43:14.520Z,395
2017-05-17T10:44:36.987Z,405
2017-05-17T10:45:59.265Z,415
2017-05-17T10:47:21.513Z,425
2017-05-17T10:48:43.688Z,430
2017-05-17T10:50:06.555Z,430
2017-05-17T10:51:28.086Z,415
2017-05-17T10:52:50.058Z,390
2017-05-17T10:54:12.286Z,370
2017-05-17T10:55:34.066Z,350
2017-05-17T10:56:55.925Z,330
2017-05-17T10:58:18.096Z,310
2017-05-17T10:59:39.938Z,295
2017-05-17T11:01:02.144Z,275
2017-05-17T11:02:24.308Z,265
2017-05-17T11:03:46.581Z,255
2017-05-17T11:05:08.436Z,250
2017-05-17T11:06:31.150Z,240
2017-05-17T11:07:53.022Z,235
2017-05-17T11:09:14.936Z,225
2017-05-17T11:10:37.118Z,225
2017-05-17T11:11:59.987Z,220
2017-05-17T11:13:21.978Z,215
2017-05-17T11:14:44.484Z,215
2017-05-17T11:16:06.337Z,210
2017-05-17T11:17:29.308Z,210
2017-05-17T11:18:51.495Z,210
2017-05-17T11:20:14.035Z,210
2017-05-17T11:21:36.029Z,210
2017-05-17T11:22:58.129Z,210
2017-05-17T11:24:19.978Z,210
2017-05-17T11:25:42.245Z,210
2017-05-17T11:27:04.147Z,210
2017-05-17T11:28:26.736Z,210
2017-05-17T11:29:48.667Z,210
2017-05-17T11:31:10.894Z,215
2017-05-17T11:32:33.077Z,210
2017-05-17T11:33:55.548Z,210
2017-05-17T11:35:17.409Z,210
2017-05-17T11:36:39.587Z,210
2017-05-17T11:38:02.099Z,205
2017-05-17T11:39:24.529Z,205
2017-05-17T11:40:46.071Z,210
2017-05-17T11:42:07.908Z,210
2017-05-17T11:43:30.157Z,210
2017-05-17T11:44:52.619Z,215
2017-05-17T11:46:14.460Z,220
2017-05-17T11:47:36.637Z,215
2017-05-17T11:48:58.496Z,215
2017-05-17T11:50:20.288Z,215
2017-05-17T11:51:42.167Z,210
2017-05-17T11:53:04.007Z,210
2017-05-17T11:54:26.247Z,205
2017-05-17T11:55:49.017Z,220
2017-05-17T11:57:11.509Z,230
2017-05-17T11:58:33.788Z,230
2017-05-17T11:59:55.940Z,240
2017-05-17T12:01:18.448Z,250
2017-05-17T12:02:40.391Z,255
2017-05-17T12:04:02.680Z,250
2017-05-17T12:05:24.200Z,245
2017-05-17T12:06:46.039Z,240
2017-05-17T12:08:07.915Z,240
2017-05-17T12:09:30.415Z,235
2017-05-17T12:10:52.259Z,235
2017-05-17T12:12:14.456Z,225
2017-05-17T12:13:36.617Z,220
2017-05-17T12:14:58.488Z,225
2017-05-17T12:16:20.684Z,220
2017-05-17T12:17:42.776Z,220
2017-05-17T12:19:04.946Z,220
2017-05-17T12:20:27.116Z,215
2017-05-17T12:21:48.636Z,215
2017-05-17T12:23:10.850Z,210
2017-05-17T12:24:33.137Z,210
2017-05-17T12:25:54.677Z,205
2017-05-17T12:27:17.174Z,205
2017-05-17T12:28:39.339Z,205
2017-05-17T12:30:01.607Z,205
2017-05-17T12:31:23.790Z,205
2017-05-17T12:32:45.663Z,205
2017-05-17T12:34:07.819Z,205
2017-05-17T12:35:30.100Z,205
2017-05-17T12:36:52.095Z,205
2017-05-17T12:38:14.344Z,205
2017-05-17T12:39:36.447Z,210
2017-05-17T12:40:58.349Z,215
2017-05-17T12:42:20.239Z,215
2017-05-17T12:43:42.106Z,215
2017-05-17T12:45:04.658Z,215
2017-05-17T12:46:27.188Z,210
2017-05-17T12:47:49.087Z,210
2017-05-17T12:49:10.937Z,210
2017-05-17T12:50:33.146Z,205
2017-05-17T12:51:54.696Z,205
2017-05-17T12:53:16.879Z,205
2017-05-17T12:54:38.448Z,205
2017-05-17T12:56:01.174Z,205
2017-05-17T12:57:23.501Z,200
2017-05-17T12:58:45.028Z,200
2017-05-17T13:00:07.226Z,200
2017-05-17T13:01:29.347Z,195
2017-05-17T13:02:51.537Z,195
2017-05-17T13:04:13.380Z,195
2017-05-17T13:05:35.886Z,195
2017-05-17T13:06:58.348Z,190
2017-05-17T13:08:20.518Z,190
2017-05-17T13:09:43.017Z,190
2017-05-17T13:11:05.509Z,190
2017-05-17T13:12:27.697Z,195
2017-05-17T13:13:49.547Z,195
2017-05-17T13:15:12.027Z,195
2017-05-17T13:16:34.517Z,195
2017-05-17T13:17:56.399Z,190
2017-05-17T13:19:18.250Z,190
2017-05-17T13:20:40.796Z,190
2017-05-17T13:22:03.278Z,195
2017-05-17T13:23:25.734Z,195
2017-05-17T13:24:47.668Z,195
2017-05-17T13:26:09.216Z,195
2017-05-17T13:27:31.390Z,195
2017-05-17T13:28:53.946Z,195
2017-05-17T13:30:15.807Z,195
2017-05-17T13:31:37.987Z,195
2017-05-17T13:33:00.171Z,200
2017-05-17T13:34:22.019Z,205
2017-05-17T13:35:44.271Z,200
2017-05-17T13:37:06.134Z,195
2017-05-17T13:38:28.456Z,195
2017-05-17T13:39:50.238Z,195
2017-05-17T13:41:12.120Z,195
2017-05-17T13:42:34.609Z,190
2017-05-17T13:43:57.123Z,190
2017-05-17T13:45:19.609Z,190
2017-05-17T13:46:42.098Z,190
2017-05-17T13:48:04.256Z,190
2017-05-17T13:49:26.198Z,185
2017-05-17T13:50:49.077Z,185
2017-05-17T13:52:11.392Z,185
2017-05-17T13:53:33.299Z,190
2017-05-17T13:54:55.166Z,185
2017-05-17T13:56:17.937Z,185
2017-05-17T13:57:40.423Z,185
2017-05-17T13:59:01.627Z,185
2017-05-17T14:00:24.135Z,185
2017-05-17T14:01:46.566Z,190
2017-05-17T14:03:08.738Z,185
2017-05-17T14:04:30.908Z,180
2017-05-17T14:05:53.148Z,180
2017-05-17T14:07:15.696Z,180
2017-05-17T14:08:37.304Z,180
2017-05-17T14:09:59.508Z,180
2017-05-17T14:11:21.656Z,180
2017-05-17T14:12:44.119Z,175
2017-05-17T14:14:05.787Z,175
2017-05-17T14:15:27.397Z,175
2017-05-17T14:16:49.889Z,175
2017-05-17T14:18:11.770Z,175
2017-05-17T14:19:33.746Z,175
2017-05-17T14:20:55.621Z,175
2017-05-17T14:22:17.819Z,175
2017-05-17T14:23:40.357Z,175
2017-05-17T14:25:02.517Z,175
2017-05-17T14:26:24.347Z,175
2017-05-17T14:27:46.565Z,175
2017-05-17T14:29:09.095Z,175
2017-05-17T14:30:31.593Z,175
2017-05-17T14:31:53.888Z,170
2017-05-17T14:33:16.169Z,170
2017-05-17T14:34:38.668Z,175
2017-05-17T14:36:00.837Z,175
2017-05-17T14:37:23.018Z,175
2017-05-17T14:38:45.198Z,170
2017-05-17T14:40:07.997Z,175
2017-05-17T14:41:30.256Z,175
2017-05-17T14:42:52.217Z,175
2017-05-17T14:44:13.836Z,170
2017-05-17T14:45:36.008Z,170
2017-05-17T14:46:58.207Z,170
2017-05-17T14:48:20.376Z,175
2017-05-17T14:49:42.607Z,190
2017-05-17T14:51:05.387Z,185
2017-05-17T14:52:27.240Z,180
2017-05-17T14:53:49.186Z,175
2017-05-17T14:55:10.420Z,170
2017-05-17T14:56:32.667Z,170
2017-05-17T14:57:54.848Z,170
2017-05-17T14:59:16.766Z,170
2017-05-17T15:00:38.977Z,170
2017-05-17T15:02:00.867Z,170
2017-05-17T15:03:23.029Z,170
2017-05-17T15:04:45.538Z,175
2017-05-17T15:06:07.477Z,175
2017-05-17T15:07:29.955Z,180
2017-05-17T15:08:52.149Z,185
2017-05-17T15:10:14.647Z,185
2017-05-17T15:11:36.524Z,175
2017-05-17T15:12:58.990Z,170
2017-05-17T15:14:21.378Z,170
2017-05-17T15:15:43.548Z,165
2017-05-17T15:17:06.063Z,165
2017-05-17T15:18:28.929Z,165
2017-05-17T15:19:51.209Z,165
2017-05-17T15:21:13.391Z,165
2017-05-17T15:22:35.306Z,165
2017-05-17T15:23:57.801Z,165
2017-05-17T15:25:19.735Z,165
2017-05-17T15:26:42.247Z,165
2017-05-17T15:28:04.422Z,165
2017-05-17T15:29:27.211Z,160
2017-05-17T15:30:49.081Z,160
2017-05-17T15:32:11.600Z,160
2017-05-17T15:33:34.097Z,160
2017-05-17T15:34:56.924Z,160
2017-05-17T15:36:19.158Z,160
2017-05-17T15:37:41.352Z,155
2017-05-17T15:39:03.539Z,155
2017-05-17T15:40:26.029Z,155
2017-05-17T15:41:48.166Z,155
2017-05-17T15:43:09.817Z,155
2017-05-17T15:44:32.305Z,155
2017-05-17T15:45:54.876Z,155
2017-05-17T15:47:17.074Z,150
2017-05-17T15:48:38.626Z,150
2017-05-17T15:50:00.862Z,150
2017-05-17T15:51:23.658Z,150
2017-05-17T15:52:45.833Z,150
2017-05-17T15:54:07.999Z,150
2017-05-17T15:55:30.578Z,155
2017-05-17T15:56:52.691Z,150
2017-05-17T15:58:14.585Z,150
2017-05-17T15:59:36.776Z,150
2017-05-17T16:00:58.949Z,150
2017-05-17T16:02:21.499Z,145
2017-05-17T16:03:43.706Z,145
2017-05-17T16:05:06.209Z,145
2017-05-17T16:06:28.397Z,145
2017-05-17T16:07:50.495Z,145
2017-05-17T16:09:12.656Z,145
2017-05-17T16:10:34.892Z,145
2017-05-17T16:11:56.774Z,145
2017-05-17T16:13:19.306Z,145
2017-05-17T16:14:41.482Z,145
2017-05-17T16:16:04.040Z,145
2017-05-17T16:17:25.727Z,140
2017-05-17T16:18:48.567Z,140
2017-05-17T16:20:10.453Z,140
2017-05-17T16:21:32.307Z,140
2017-05-17T16:22:54.185Z,140
2017-05-17T16:24:16.777Z,140
2017-05-17T16:25:38.940Z,140
2017-05-17T16:27:01.188Z,140
2017-05-17T16:28:23.079Z,140
2017-05-17T16:29:45.578Z,140
2017-05-17T16:31:07.168Z,140
2017-05-17T16:32:29.785Z,140
2017-05-17T16:33:51.753Z,140
2017-05-17T16:35:13.267Z,140
2017-05-17T16:36:34.848Z,140
2017-05-17T16:37:57.020Z,140
2017-05-17T16:39:19.184Z,140
2017-05-17T16:40:41.957Z,140
2017-05-17T16:42:04.146Z,135
2017-05-17T16:43:26.347Z,135
2017-05-17T16:44:48.209Z,135
2017-05-17T16:46:10.656Z,135
2017-05-17T16:47:31.667Z,135
2017-05-17T16:48:54.247Z,135
2017-05-17T16:50:16.731Z,135
2017-05-17T16:51:38.900Z,135
2017-05-17T16:53:01.116Z,130
2017-05-17T16:54:23.408Z,130
2017-05-17T16:55:45.887Z,130
2017-05-17T16:57:08.762Z,130
2017-05-17T16:58:30.945Z,130
2017-05-17T16:59:52.821Z,130
2017-05-17T17:01:15.021Z,125
2017-05-17T17:02:37.434Z,125
2017-05-17T17:03:59.187Z,125
2017-05-17T17:05:21.702Z,125
2017-05-17T17:06:43.899Z,130
2017-05-17T17:08:06.018Z,130
2017-05-17T17:09:28.246Z,130
2017-05-17T17:10:50.426Z,130
2017-05-17T17:12:12.368Z,130
2017-05-17T17:13:35.196Z,125
2017-05-17T17:14:57.367Z,125
2017-05-17T17:16:19.569Z,125
2017-05-17T17:17:42.069Z,125
2017-05-17T17:19:04.276Z,125
2017-05-17T17:20:26.146Z,120
2017-05-17T17:21:48.669Z,120
2017-05-17T17:23:11.158Z,120
2017-05-17T17:24:33.907Z,120
2017-05-17T17:25:55.788Z,120
2017-05-17T17:27:18.269Z,120
2017-05-17T17:28:40.625Z,120
2017-05-17T17:30:03.216Z,115
2017-05-17T17:31:25.073Z,110
2017-05-17T17:32:47.255Z,110
2017-05-17T17:34:09.449Z,115
2017-05-17T17:35:32.017Z,115
2017-05-17T17:36:54.231Z,120
2017-05-17T17:38:16.747Z,120
2017-05-17T17:39:39.335Z,125
2017-05-17T17:41:02.173Z,115
2017-05-17T17:42:24.096Z,115
2017-05-17T17:43:45.967Z,115
2017-05-17T17:45:07.573Z,115
2017-05-17T17:46:30.177Z,110
2017-05-17T17:47:52.050Z,110
2017-05-17T17:49:14.545Z,110
2017-05-17T17:50:37.055Z,110
2017-05-17T17:51:59.916Z,110
2017-05-17T17:53:22.393Z,105
2017-05-17T17:54:44.274Z,105
2017-05-17T17:56:06.797Z,105
2017-05-17T17:57:29.686Z,105
2017-05-17T17:58:51.546Z,105
2017-05-17T18:00:13.734Z,105
2017-05-17T18:01:36.235Z,105
2017-05-17T18:02:58.376Z,105
2017-05-17T18:04:20.574Z,100
2017-05-17T18:05:42.964Z,100
2017-05-17T18:07:04.823Z,100
2017-05-17T18:08:26.928Z,95
2017-05-17T18:09:49.243Z,95
2017-05-17T18:11:11.103Z,90
2017-05-17T18:12:33.380Z,90
2017-05-17T18:13:55.855Z,90
2017-05-17T18:15:18.396Z,85
2017-05-17T18:16:40.895Z,85
2017-05-17T18:18:03.418Z,85
2017-05-17T18:19:26.255Z,80
2017-05-17T18:20:48.108Z,80
2017-05-17T18:22:10.326Z,75
2017-05-17T18:23:32.064Z,75
2017-05-17T18:24:54.554Z,75
2017-05-17T18:26:17.074Z,70
2017-05-17T18:27:39.595Z,75
2017-05-17T18:29:01.796Z,70
2017-05-17T18:30:24.320Z,70
2017-05-17T18:31:46.524Z,65
2017-05-17T18:33:09.043Z,65
2017-05-17T18:34:31.328Z,60
2017-05-17T18:35:53.838Z,60
2017-05-17T18:37:15.715Z,55
2017-05-17T18:38:38.275Z,55
2017-05-17T18:40:00.464Z,50
2017-05-17T18:41:22.356Z,50
2017-05-17T18:42:44.591Z,45
2017-05-17T18:44:07.133Z,45
2017-05-17T18:45:29.775Z,45
2017-05-17T18:46:52.274Z,40
2017-05-17T18:48:15.144Z,40
2017-05-17T18:49:37.006Z,40
2017-05-17T18:50:59.564Z,35
2017-05-17T18:52:22.494Z,35
2017-05-17T18:53:44.392Z,35
2017-05-17T18:55:06.914Z,30
2017-05-17T18:56:29.439Z,30
2017-05-17T18:57:51.983Z,30
2017-05-17T18:59:14.489Z,25
2017-05-17T19:00:36.509Z,25
2017-05-17T19:01:58.713Z,20
2017-05-17T19:03:20.929Z,20
2017-05-17T19:04:43.104Z,20
2017-05-17T19:06:05.409Z,15
2017-05-17T19:07:27.926Z,15
2017-05-17T19:08:50.801Z,15
2017-05-17T19:10:13.423Z,15